Time;durP1;ratioP1;P1;durP2;ratioP2;P2;SDS_P1;SDS_P2;PMS_P1;PMS_P2;Temp;Humidity;BMP_temperature;BMP_pressure;BME280_temperature;BME280_humidity;BME280_pressure;Samples;Min_cycle;Max_cycle;Signal;HPM_P1;HPM_P2
2021/08/04 00:01:25;;;;;;;;;;;13.80;99.90;;;;;;5034570;28;19909;-77
2021/08/04 00:03:51;;;;;;;;;;;13.80;99.90;;;;;;5016440;28;20285;-77
2021/08/04 00:06:17;;;;;;;;;;;13.80;99.90;;;;;;5034108;28;19910;-76
2021/08/04 00:08:42;;;;;;;;;;;13.80;99.90;;;;;;5034445;28;19909;-76
2021/08/04 00:11:08;;;;;;;;;;;13.80;99.90;;;;;;5016178;28;19952;-76
2021/08/04 00:13:33;;;;;;;;;;;13.80;99.90;;;;;;5016536;28;19909;-76
2021/08/04 00:15:59;;;;;;;;;;;13.80;99.90;;;;;;5034245;28;19913;-76
2021/08/04 00:18:24;;;;;;;;;;;13.80;99.90;;;;;;5033866;28;19910;-76
2021/08/04 00:20:50;;;;;;;;;;;13.80;99.90;;;;;;5016331;28;20330;-76
2021/08/04 00:23:15;;;;;;;;;;;13.80;99.90;;;;;;5034201;28;19923;-76
2021/08/04 00:25:41;;;;;;;;;;;13.80;99.90;;;;;;5034314;28;19915;-76
2021/08/04 00:28:06;;;;;;;;;;;13.80;99.90;;;;;;5033707;28;19913;-76
2021/08/04 00:30:32;;;;;;;;;;;13.80;99.90;;;;;;5033883;28;19955;-76
2021/08/04 00:32:58;;;;;;;;;;;13.80;99.90;;;;;;5015974;28;20417;-76
2021/08/04 00:35:23;;;;;;;;;;;13.80;99.90;;;;;;5034118;28;20358;-76
2021/08/04 00:37:49;;;;;;;;;;;13.80;99.90;;;;;;5033417;28;19947;-76
2021/08/04 00:40:14;;;;;;;;;;;13.80;99.90;;;;;;5033672;28;19931;-76
2021/08/04 00:42:40;;;;;;;;;;;13.80;99.90;;;;;;5014701;28;20091;-76
2021/08/04 00:45:07;;;;;;;;;;;13.80;99.90;;;;;;5016053;28;19909;-76
2021/08/04 00:47:33;;;;;;;;;;;13.80;99.90;;;;;;5033145;28;19913;-76
2021/08/04 00:49:59;;;;;;;;;;;13.80;99.90;;;;;;5033275;28;20320;-76
2021/08/04 00:52:24;;;;;;;;;;;13.80;99.90;;;;;;5033761;28;19963;-76
2021/08/04 00:54:50;;;;;;;;;;;13.80;99.90;;;;;;5033561;28;19912;-76
2021/08/04 00:57:16;;;;;;;;;;;13.80;99.90;;;;;;5033050;28;19963;-76
2021/08/04 00:59:41;;;;;;;;;;;13.80;99.90;;;;;;5033411;28;20000;-77
2021/08/04 01:02:27;;;;;;;;;;;13.80;99.90;;;;;;5033163;28;19909;-76
2021/08/04 01:04:57;;;;;;;;;;;13.80;99.90;;;;;;5033574;28;19944;-76
2021/08/04 01:07:31;;;;;;;;;;;13.70;99.90;;;;;;5033072;28;20365;-76
2021/08/04 01:10:06;;;;;;;;;;;13.70;99.90;;;;;;5033168;28;20330;-76
2021/08/04 01:12:36;;;;;;;;;;;13.70;99.90;;;;;;5032958;28;19909;-76
2021/08/04 01:15:03;;;;;;;;;;;13.70;99.90;;;;;;5033477;28;19917;-76
2021/08/04 01:17:29;;;;;;;;;;;13.60;99.90;;;;;;5032666;28;19972;-76
2021/08/04 01:20:10;;;;;;;;;;;13.60;99.90;;;;;;5031999;28;19909;-76
2021/08/04 01:22:50;;;;;;;;;;;13.60;99.90;;;;;;5033130;28;19913;-76
2021/08/04 01:25:17;;;;;;;;;;;13.50;99.90;;;;;;5032862;28;19909;-76
2021/08/04 01:27:47;;;;;;;;;;;13.40;99.90;;;;;;5032615;28;19945;-76
2021/08/04 01:30:13;;;;;;;;;;;13.40;99.90;;;;;;5032655;28;19913;-76
2021/08/04 01:32:38;;;;;;;;;;;13.40;99.90;;;;;;5031589;28;19916;-76
2021/08/04 01:35:05;;;;;;;;;;;13.30;99.90;;;;;;5032807;28;19909;-76
2021/08/04 01:37:31;;;;;;;;;;;13.30;99.90;;;;;;5031035;28;19909;-76
2021/08/04 01:39:57;;;;;;;;;;;13.30;99.90;;;;;;5032571;28;19955;-77
2021/08/04 01:42:23;;;;;;;;;;;13.30;99.90;;;;;;5014782;28;20383;-76
2021/08/04 01:44:49;;;;;;;;;;;13.30;99.90;;;;;;5014954;28;19909;-76
2021/08/04 01:47:15;;;;;;;;;;;13.30;99.90;;;;;;5032178;28;19913;-76
2021/08/04 01:49:41;;;;;;;;;;;13.30;99.90;;;;;;5014486;28;20374;-76
2021/08/04 01:52:07;;;;;;;;;;;13.20;99.90;;;;;;5032501;28;20020;-76
2021/08/04 01:54:32;;;;;;;;;;;13.20;99.90;;;;;;5032169;28;20397;-76
2021/08/04 01:56:58;;;;;;;;;;;13.20;99.90;;;;;;5030664;28;20011;-76
2021/08/04 01:59:23;;;;;;;;;;;13.20;99.90;;;;;;5032127;28;20004;-76
2021/08/04 02:01:49;;;;;;;;;;;13.20;99.90;;;;;;5031999;28;19935;-76
2021/08/04 02:04:15;;;;;;;;;;;13.20;99.90;;;;;;5014236;28;19967;-76
2021/08/04 02:06:50;;;;;;;;;;;13.20;99.90;;;;;;5031565;28;19993;-76
2021/08/04 02:09:34;;;;;;;;;;;13.20;99.90;;;;;;5032000;28;19913;-76
2021/08/04 02:12:02;;;;;;;;;;;13.20;99.90;;;;;;5030959;28;19924;-76
2021/08/04 02:14:30;;;;;;;;;;;13.30;99.90;;;;;;5031795;28;20377;-76
2021/08/04 02:17:06;;;;;;;;;;;13.30;99.90;;;;;;5031535;28;19909;-76
2021/08/04 02:19:31;;;;;;;;;;;13.30;99.90;;;;;;5031661;28;19916;-76
2021/08/04 02:22:07;;;;;;;;;;;13.30;99.90;;;;;;5031769;28;19909;-76
2021/08/04 02:24:35;;;;;;;;;;;13.30;99.90;;;;;;5013994;28;19917;-76
2021/08/04 02:27:02;;;;;;;;;;;13.30;99.90;;;;;;5031247;28;19909;-76
2021/08/04 02:29:30;;;;;;;;;;;13.30;99.90;;;;;;5031559;28;20330;-76
2021/08/04 02:31:55;;;;;;;;;;;13.30;99.90;;;;;;5031343;28;19917;-76
2021/08/04 02:34:21;;;;;;;;;;;13.30;99.90;;;;;;5013802;28;19959;-76
2021/08/04 02:36:47;;;;;;;;;;;13.30;99.90;;;;;;5031229;28;20004;-76
2021/08/04 02:39:13;;;;;;;;;;;13.30;99.90;;;;;;5031532;28;20099;-76
2021/08/04 02:41:39;;;;;;;;;;;13.30;99.90;;;;;;5013334;28;19909;-76
2021/08/04 02:44:05;;;;;;;;;;;13.30;99.90;;;;;;5011559;28;20004;-76
2021/08/04 02:46:31;;;;;;;;;;;13.30;99.90;;;;;;4993484;28;19909;-76
2021/08/04 02:48:57;;;;;;;;;;;13.30;99.90;;;;;;4994091;28;20008;-76
2021/08/04 02:51:24;;;;;;;;;;;13.20;99.90;;;;;;5011460;28;20381;-76
2021/08/04 02:53:56;;;;;;;;;;;13.20;99.90;;;;;;5011530;28;20328;-76
2021/08/04 02:56:22;;;;;;;;;;;13.30;99.90;;;;;;5011144;28;20115;-76
2021/08/04 02:58:47;;;;;;;;;;;13.30;99.90;;;;;;5011319;28;19910;-76
2021/08/04 03:01:13;;;;;;;;;;;13.30;99.90;;;;;;5011322;28;19964;-76
2021/08/04 03:03:38;;;;;;;;;;;13.30;99.90;;;;;;5011291;28;19913;-76
2021/08/04 03:06:04;;;;;;;;;;;13.30;99.90;;;;;;5010809;28;19963;-76
2021/08/04 03:08:29;;;;;;;;;;;13.30;99.90;;;;;;4993734;28;20018;-76
2021/08/04 03:10:55;;;;;;;;;;;13.30;99.90;;;;;;5024422;28;20428;-76
2021/08/04 03:13:21;;;;;;;;;;;13.30;99.90;;;;;;5030789;28;20376;-76
2021/08/04 03:15:46;;;;;;;;;;;13.30;99.90;;;;;;5013245;28;19910;-76
2021/08/04 03:18:12;;;;;;;;;;;13.20;99.90;;;;;;5030591;28;20398;-76
2021/08/04 03:20:37;;;;;;;;;;;13.20;99.90;;;;;;5031378;28;19917;-76
2021/08/04 03:23:03;;;;;;;;;;;13.20;99.90;;;;;;5013104;28;19975;-76
2021/08/04 03:25:28;;;;;;;;;;;13.20;99.90;;;;;;5030884;28;19909;-76
2021/08/04 03:27:54;;;;;;;;;;;13.20;99.90;;;;;;5012753;28;20321;-76
2021/08/04 03:30:19;;;;;;;;;;;13.10;99.90;;;;;;5030585;28;19917;-76
2021/08/04 03:32:45;;;;;;;;;;;13.10;99.90;;;;;;5030888;28;20000;-76
2021/08/04 03:35:10;;;;;;;;;;;13.10;99.90;;;;;;5013122;28;19920;-76
2021/08/04 03:37:36;;;;;;;;;;;13.10;99.90;;;;;;5030489;28;19909;-76
2021/08/04 03:40:02;;;;;;;;;;;13.10;99.90;;;;;;5030665;28;19909;-76
2021/08/04 03:42:27;;;;;;;;;;;13.10;99.90;;;;;;5012506;28;20386;-76
2021/08/04 03:44:53;;;;;;;;;;;13.10;99.90;;;;;;5012843;28;19919;-76
2021/08/04 03:47:18;;;;;;;;;;;13.10;99.90;;;;;;5030387;28;20297;-76
2021/08/04 03:49:44;;;;;;;;;;;13.10;99.90;;;;;;5030750;28;19955;-76
2021/08/04 03:52:09;;;;;;;;;;;13.10;99.90;;;;;;5012992;28;19920;-76
2021/08/04 03:54:35;;;;;;;;;;;13.10;99.90;;;;;;5012981;28;19909;-76
2021/08/04 03:57:00;;;;;;;;;;;13.10;99.90;;;;;;5030275;28;19909;-76
2021/08/04 03:59:26;;;;;;;;;;;13.00;99.90;;;;;;5030442;28;20012;-76
2021/08/04 04:01:51;;;;;;;;;;;13.00;99.90;;;;;;5030504;28;19917;-76
2021/08/04 04:04:17;;;;;;;;;;;13.00;99.90;;;;;;5030494;28;19984;-76
2021/08/04 04:06:42;;;;;;;;;;;13.00;99.90;;;;;;5030207;28;19909;-76
2021/08/04 04:09:08;;;;;;;;;;;13.00;99.90;;;;;;5030558;28;19916;-76
2021/08/04 04:11:35;;;;;;;;;;;13.00;99.90;;;;;;5030518;28;19910;-76
2021/08/04 04:14:01;;;;;;;;;;;13.00;99.90;;;;;;5030287;28;19956;-76
2021/08/04 04:16:26;;;;;;;;;;;13.00;99.90;;;;;;5031876;28;20329;-76
2021/08/04 04:18:52;;;;;;;;;;;12.90;99.90;;;;;;5034053;28;19959;-76
2021/08/04 04:21:17;;;;;;;;;;;12.90;99.90;;;;;;5033935;28;19909;-76
2021/08/04 04:23:43;;;;;;;;;;;13.00;99.90;;;;;;5033811;28;19913;-76
2021/08/04 04:26:08;;;;;;;;;;;13.00;99.90;;;;;;5033431;28;19909;-76
2021/08/04 04:28:34;;;;;;;;;;;13.00;99.90;;;;;;5033576;28;19909;-76
2021/08/04 04:30:59;;;;;;;;;;;13.00;99.90;;;;;;5015856;28;19975;-76
2021/08/04 04:33:25;;;;;;;;;;;13.00;99.90;;;;;;5015962;28;20391;-76
2021/08/04 04:35:51;;;;;;;;;;;13.00;99.90;;;;;;5033708;28;19915;-76
2021/08/04 04:38:16;;;;;;;;;;;13.00;99.90;;;;;;5033392;28;20062;-76
2021/08/04 04:40:42;;;;;;;;;;;13.10;99.90;;;;;;5015527;28;20003;-76
2021/08/04 04:43:07;;;;;;;;;;;13.10;99.90;;;;;;5033194;28;20281;-76
2021/08/04 04:45:33;;;;;;;;;;;13.10;99.90;;;;;;5033652;28;19913;-76
2021/08/04 04:47:58;;;;;;;;;;;13.20;99.90;;;;;;5033199;28;19932;-76
2021/08/04 04:50:24;;;;;;;;;;;13.30;99.90;;;;;;5033468;28;19917;-76
2021/08/04 04:52:49;;;;;;;;;;;13.30;99.90;;;;;;5015714;28;19920;-76
2021/08/04 04:55:15;;;;;;;;;;;13.30;99.90;;;;;;5033381;28;19909;-76
2021/08/04 04:57:40;;;;;;;;;;;13.30;99.90;;;;;;5032723;28;19909;-76
2021/08/04 05:00:07;;;;;;;;;;;13.30;99.90;;;;;;5033254;28;20289;-76
2021/08/04 05:02:35;;;;;;;;;;;13.40;99.90;;;;;;5015375;28;19944;-76
2021/08/04 05:05:01;;;;;;;;;;;13.40;99.90;;;;;;5015407;28;20293;-77
2021/08/04 05:07:26;;;;;;;;;;;13.40;99.90;;;;;;5032709;28;19909;-76
2021/08/04 05:09:52;;;;;;;;;;;13.40;99.90;;;;;;5033282;28;19955;-76
2021/08/04 05:12:17;;;;;;;;;;;13.50;99.90;;;;;;5032586;28;19909;-76
2021/08/04 05:14:43;;;;;;;;;;;13.50;99.90;;;;;;5033089;28;19909;-76
2021/08/04 05:17:13;;;;;;;;;;;13.50;99.90;;;;;;5032642;28;19913;-76
2021/08/04 05:19:39;;;;;;;;;;;13.60;99.90;;;;;;5032698;28;19909;-76
2021/08/04 05:22:04;;;;;;;;;;;13.70;99.90;;;;;;5032966;28;19917;-76
2021/08/04 05:24:29;;;;;;;;;;;13.70;99.90;;;;;;5032806;28;19917;-76
2021/08/04 05:26:55;;;;;;;;;;;13.80;99.90;;;;;;5032026;28;20389;-76
2021/08/04 05:29:20;;;;;;;;;;;13.90;99.90;;;;;;5032404;28;19944;-76
2021/08/04 05:31:46;;;;;;;;;;;14.00;99.90;;;;;;5014838;28;19921;-76
2021/08/04 05:34:12;;;;;;;;;;;14.10;99.90;;;;;;5032870;28;19915;-76
2021/08/04 05:36:37;;;;;;;;;;;14.20;99.90;;;;;;5014670;28;20405;-76
2021/08/04 05:39:03;;;;;;;;;;;14.20;99.90;;;;;;5032867;28;19909;-76
2021/08/04 05:41:28;;;;;;;;;;;14.30;99.90;;;;;;5014207;28;19909;-76
2021/08/04 05:43:54;;;;;;;;;;;14.50;99.90;;;;;;5032428;28;19920;-76
2021/08/04 05:46:20;;;;;;;;;;;14.50;99.90;;;;;;5032195;28;19913;-76
2021/08/04 05:48:45;;;;;;;;;;;14.50;99.90;;;;;;5032620;28;19909;-76
2021/08/04 05:51:11;;;;;;;;;;;14.60;99.90;;;;;;5032352;28;19916;-76
2021/08/04 05:53:36;;;;;;;;;;;14.60;99.90;;;;;;5032436;28;19916;-76
2021/08/04 05:56:02;;;;;;;;;;;14.70;99.90;;;;;;5031810;28;20396;-77
2021/08/04 05:58:27;;;;;;;;;;;14.80;99.90;;;;;;5014504;28;19916;-76
2021/08/04 06:00:53;;;;;;;;;;;14.80;99.90;;;;;;5014485;28;20275;-76
2021/08/04 06:03:19;;;;;;;;;;;14.80;99.90;;;;;;5032344;28;20004;-76
2021/08/04 06:05:45;;;;;;;;;;;14.90;99.90;;;;;;5032183;28;19992;-77
2021/08/04 06:08:10;;;;;;;;;;;14.90;99.90;;;;;;5031890;28;20074;-77
2021/08/04 06:10:36;;;;;;;;;;;14.90;99.90;;;;;;5013935;28;20014;-76
2021/08/04 06:13:02;;;;;;;;;;;14.90;99.90;;;;;;5031789;28;19916;-77
2021/08/04 06:15:27;;;;;;;;;;;14.90;99.90;;;;;;5014316;28;19991;-76
2021/08/04 06:17:53;;;;;;;;;;;15.00;99.90;;;;;;5031659;28;20011;-76
2021/08/04 06:20:18;;;;;;;;;;;15.10;99.90;;;;;;5031566;28;19909;-75
2021/08/04 06:22:44;;;;;;;;;;;15.10;99.90;;;;;;5031934;28;20372;-76
2021/08/04 06:25:09;;;;;;;;;;;15.10;99.90;;;;;;5030483;28;19920;-75
2021/08/04 06:27:35;;;;;;;;;;;15.00;99.90;;;;;;5031579;28;20285;-76
2021/08/04 06:30:00;;;;;;;;;;;14.90;99.90;;;;;;5031693;28;19996;-76
2021/08/04 06:32:26;;;;;;;;;;;14.90;99.90;;;;;;5031828;28;19917;-76
2021/08/04 06:34:51;;;;;;;;;;;14.90;99.90;;;;;;5031839;28;19909;-76
2021/08/04 06:37:17;;;;;;;;;;;14.90;99.90;;;;;;5031443;28;20346;-76
2021/08/04 06:39:42;;;;;;;;;;;15.10;99.90;;;;;;5030542;28;19910;-76
2021/08/04 06:42:08;;;;;;;;;;;15.30;99.90;;;;;;5031980;28;19999;-76
2021/08/04 06:44:33;;;;;;;;;;;15.40;99.90;;;;;;5031574;28;19913;-76
2021/08/04 06:46:59;;;;;;;;;;;15.50;99.90;;;;;;5031255;28;19909;-76
2021/08/04 06:49:25;;;;;;;;;;;15.70;99.90;;;;;;5031611;28;19922;-76
2021/08/04 06:51:50;;;;;;;;;;;15.80;99.90;;;;;;5031096;28;19909;-76
2021/08/04 06:54:16;;;;;;;;;;;15.80;99.90;;;;;;5013396;28;19909;-76
2021/08/04 06:56:41;;;;;;;;;;;15.80;99.90;;;;;;5013307;28;20448;-76
2021/08/04 06:59:07;;;;;;;;;;;15.90;99.90;;;;;;5031533;28;20365;-76
2021/08/04 07:01:32;;;;;;;;;;;15.90;99.90;;;;;;5029901;28;20378;-76
2021/08/04 07:03:58;;;;;;;;;;;16.40;99.90;;;;;;5030980;28;19913;-76
2021/08/04 07:06:23;;;;;;;;;;;17.60;99.90;;;;;;5031103;28;19978;-76
2021/08/04 07:08:49;;;;;;;;;;;18.70;99.90;;;;;;5031758;28;19909;-76
2021/08/04 07:11:14;;;;;;;;;;;20.00;99.90;;;;;;5031281;28;19952;-77
2021/08/04 07:13:40;;;;;;;;;;;21.10;99.90;;;;;;5031418;28;19913;-76
2021/08/04 07:16:06;;;;;;;;;;;21.30;99.90;;;;;;5030546;28;19940;-76
2021/08/04 07:18:31;;;;;;;;;;;20.50;99.90;;;;;;5031211;28;20445;-75
2021/08/04 07:20:57;;;;;;;;;;;19.80;99.90;;;;;;5031289;28;19909;-75
2021/08/04 07:23:22;;;;;;;;;;;19.10;99.90;;;;;;5031115;28;19913;-76
2021/08/04 07:25:48;;;;;;;;;;;18.90;99.90;;;;;;5031237;28;20278;-76
2021/08/04 07:28:13;;;;;;;;;;;18.80;99.90;;;;;;5031073;28;19910;-76
2021/08/04 07:30:39;;;;;;;;;;;18.80;99.90;;;;;;5031066;28;20695;-76
2021/08/04 07:33:05;;;;;;;;;;;18.80;99.90;;;;;;5031200;28;20447;-76
2021/08/04 07:35:30;;;;;;;;;;;18.90;99.90;;;;;;5031644;28;20002;-76
2021/08/04 07:37:56;;;;;;;;;;;18.90;99.90;;;;;;5013051;28;20286;-76
2021/08/04 07:40:21;;;;;;;;;;;18.90;99.90;;;;;;5013229;28;19948;-76
2021/08/04 07:42:48;;;;;;;;;;;19.20;99.90;;;;;;5031142;28;19960;-76
2021/08/04 07:45:14;;;;;;;;;;;19.70;99.90;;;;;;5031130;28;19915;-76
2021/08/04 07:47:39;;;;;;;;;;;19.90;99.90;;;;;;5030644;28;19919;-76
2021/08/04 07:50:05;;;;;;;;;;;20.00;99.90;;;;;;5013372;28;20008;-76
2021/08/04 07:52:31;;;;;;;;;;;20.30;99.90;;;;;;5034571;28;19913;-76
2021/08/04 07:54:56;;;;;;;;;;;20.60;99.90;;;;;;5034884;28;19909;-76
2021/08/04 07:57:22;;;;;;;;;;;20.60;99.90;;;;;;5034516;28;20392;-76
2021/08/04 07:59:47;;;;;;;;;;;20.30;99.90;;;;;;5016977;28;19978;-76
2021/08/04 08:02:13;;;;;;;;;;;20.50;99.90;;;;;;5017057;28;20401;-77
2021/08/04 08:04:38;;;;;;;;;;;20.60;99.90;;;;;;5034709;28;19955;-76
2021/08/04 08:07:04;;;;;;;;;;;20.70;99.90;;;;;;5034373;28;19916;-77
2021/08/04 08:09:30;;;;;;;;;;;20.80;99.90;;;;;;5035068;28;20267;-76
2021/08/04 08:11:58;;;;;;;;;;;20.70;99.90;;;;;;5016759;28;19916;-77
2021/08/04 08:14:24;;;;;;;;;;;20.70;99.90;;;;;;5034651;28;20137;-77
2021/08/04 08:16:49;;;;;;;;;;;21.00;99.90;;;;;;5033867;28;19992;-76
2021/08/04 08:19:15;;;;;;;;;;;21.80;99.90;;;;;;5034424;28;20004;-77
2021/08/04 08:21:40;;;;;;;;;;;22.40;99.90;;;;;;5033438;28;19913;-77
2021/08/04 08:24:06;;;;;;;;;;;22.70;99.90;;;;;;5034322;28;19924;-77
2021/08/04 08:26:33;;;;;;;;;;;23.00;99.90;;;;;;5034036;28;19948;-77
2021/08/04 08:28:58;;;;;;;;;;;23.10;99.90;;;;;;5034321;28;19916;-77
2021/08/04 08:31:24;;;;;;;;;;;22.90;99.90;;;;;;5034204;28;20363;-76
2021/08/04 08:33:49;;;;;;;;;;;22.60;99.90;;;;;;5034210;28;19920;-77
2021/08/04 08:36:15;;;;;;;;;;;22.10;99.90;;;;;;5033758;28;19935;-76
2021/08/04 08:38:40;;;;;;;;;;;21.20;99.90;;;;;;5034025;28;19909;-76
2021/08/04 08:41:07;;;;;;;;;;;20.80;99.90;;;;;;5034084;28;19910;-77
2021/08/04 08:43:36;;;;;;;;;;;20.50;99.90;;;;;;5032743;28;19917;-76
2021/08/04 08:46:02;;;;;;;;;;;20.50;99.90;;;;;;5032172;28;19909;-76
2021/08/04 08:48:27;;;;;;;;;;;20.40;99.90;;;;;;5033606;28;19932;-77
2021/08/04 08:50:54;;;;;;;;;;;20.30;99.90;;;;;;5033479;28;20365;-76
2021/08/04 08:53:20;;;;;;;;;;;20.30;99.90;;;;;;5015966;28;20006;-77
2021/08/04 08:55:45;;;;;;;;;;;20.20;99.90;;;;;;5034039;28;19909;-77
2021/08/04 08:58:11;;;;;;;;;;;20.20;99.90;;;;;;5033535;28;20263;-77
2021/08/04 09:00:36;;;;;;;;;;;20.30;99.90;;;;;;5033803;28;20350;-77
2021/08/04 09:03:02;;;;;;;;;;;20.30;99.90;;;;;;5032771;28;19959;-77
2021/08/04 09:05:27;;;;;;;;;;;20.60;99.90;;;;;;5033554;28;20285;-77
2021/08/04 09:07:53;;;;;;;;;;;20.70;99.90;;;;;;5015529;28;20004;-76
2021/08/04 09:10:19;;;;;;;;;;;21.00;99.90;;;;;;5033367;28;20013;-76
2021/08/04 09:12:48;;;;;;;;;;;21.00;99.90;;;;;;5033554;28;19952;-76
2021/08/04 09:15:23;;;;;;;;;;;21.20;99.90;;;;;;5033534;28;19909;-76
2021/08/04 09:18:03;;;;;;;;;;;21.20;99.90;;;;;;5032740;28;20412;-76
2021/08/04 09:20:29;;;;;;;;;;;21.40;99.90;;;;;;5032615;28;19917;-76
2021/08/04 09:22:59;;;;;;;;;;;21.10;99.90;;;;;;5032663;28;19913;-77
2021/08/04 09:25:25;;;;;;;;;;;20.70;99.90;;;;;;5033605;28;19916;-77
2021/08/04 09:27:52;;;;;;;;;;;20.80;99.90;;;;;;5032979;28;19920;-77
2021/08/04 09:30:25;;;;;;;;;;;20.90;99.90;;;;;;5031689;28;19913;-76
2021/08/04 09:32:51;;;;;;;;;;;20.90;99.90;;;;;;5033031;28;19971;-76
2021/08/04 09:35:18;;;;;;;;;;;20.80;99.90;;;;;;5033480;28;19909;-77
2021/08/04 09:37:45;;;;;;;;;;;21.10;99.90;;;;;;5031455;28;20292;-77
2021/08/04 09:40:11;;;;;;;;;;;21.30;99.90;;;;;;5033098;28;19920;-76
2021/08/04 09:42:46;;;;;;;;;;;21.40;99.90;;;;;;5032942;28;19916;-76
2021/08/04 09:45:12;;;;;;;;;;;21.10;99.90;;;;;;5032733;28;20370;-76
2021/08/04 09:47:38;;;;;;;;;;;20.90;99.90;;;;;;5031215;28;19916;-76
2021/08/04 09:50:05;;;;;;;;;;;20.90;99.90;;;;;;5032531;28;19910;-76
2021/08/04 09:52:31;;;;;;;;;;;21.00;99.90;;;;;;5032460;28;19909;-76
2021/08/04 09:55:10;;;;;;;;;;;20.60;99.90;;;;;;5032629;28;19916;-76
2021/08/04 09:57:39;;;;;;;;;;;20.40;99.90;;;;;;5032096;28;20036;-76
2021/08/04 10:00:06;;;;;;;;;;;20.10;99.90;;;;;;5032667;28;19916;-76
2021/08/04 10:02:32;;;;;;;;;;;20.10;99.90;;;;;;5032643;28;19924;-76
2021/08/04 10:05:14;;;;;;;;;;;20.20;99.90;;;;;;5032466;28;19931;-76
2021/08/04 10:07:59;;;;;;;;;;;20.30;99.90;;;;;;5032136;28;19913;-76
2021/08/04 10:10:24;;;;;;;;;;;20.30;99.90;;;;;;5032419;28;19916;-77
2021/08/04 10:12:50;;;;;;;;;;;20.60;99.90;;;;;;5014700;28;19913;-76
2021/08/04 10:15:15;;;;;;;;;;;20.90;99.90;;;;;;5032294;28;20254;-77
2021/08/04 10:17:41;;;;;;;;;;;21.20;99.90;;;;;;5014198;28;20008;-77
2021/08/04 10:20:07;;;;;;;;;;;21.60;99.90;;;;;;5014412;28;19909;-76
2021/08/04 10:22:32;;;;;;;;;;;21.90;99.90;;;;;;5031940;28;19960;-77
2021/08/04 10:24:58;;;;;;;;;;;22.20;99.90;;;;;;5031969;28;20586;-76
2021/08/04 10:27:23;;;;;;;;;;;22.20;99.90;;;;;;5031789;28;19951;-76
2021/08/04 10:29:49;;;;;;;;;;;22.20;99.90;;;;;;5031873;28;19909;-76
2021/08/04 10:32:15;;;;;;;;;;;22.30;99.90;;;;;;5032412;28;20366;-76
2021/08/04 10:34:42;;;;;;;;;;;22.50;99.90;;;;;;5031999;28;19997;-77
2021/08/04 10:37:07;;;;;;;;;;;22.70;99.90;;;;;;5031545;28;19920;-76
2021/08/04 10:39:33;;;;;;;;;;;22.60;99.90;;;;;;5031805;28;19913;-76
2021/08/04 10:42:06;;;;;;;;;;;22.30;99.90;;;;;;5031952;28;19913;-76
2021/08/04 10:44:32;;;;;;;;;;;22.00;99.90;;;;;;5031844;28;19913;-76
2021/08/04 10:46:59;;;;;;;;;;;22.00;99.90;;;;;;5013723;28;19916;-76
2021/08/04 10:49:26;;;;;;;;;;;22.10;99.90;;;;;;5014373;28;20294;-77
2021/08/04 10:51:51;;;;;;;;;;;22.00;99.90;;;;;;5031376;28;19916;-77
2021/08/04 10:54:17;;;;;;;;;;;21.70;99.90;;;;;;5031674;28;19909;-76
2021/08/04 10:56:43;;;;;;;;;;;21.60;99.90;;;;;;5031340;28;19915;-77
2021/08/04 10:59:11;;;;;;;;;;;21.80;99.90;;;;;;5031684;28;19909;-77
2021/08/04 11:01:38;;;;;;;;;;;22.30;99.90;;;;;;5013775;28;19909;-76
2021/08/04 11:04:04;;;;;;;;;;;22.70;99.90;;;;;;5031269;28;20133;-76
2021/08/04 11:06:30;;;;;;;;;;;23.20;99.90;;;;;;5030947;28;19913;-76
2021/08/04 11:09:14;;;;;;;;;;;23.40;99.90;;;;;;5031519;28;20281;-76
2021/08/04 11:11:52;;;;;;;;;;;23.70;99.90;;;;;;5031481;28;20051;-77
2021/08/04 11:14:38;;;;;;;;;;;23.90;99.90;;;;;;5031106;28;19913;-76
2021/08/04 11:17:04;;;;;;;;;;;23.50;99.60;;;;;;5023510;28;19915;-77
2021/08/04 11:19:34;;;;;;;;;;;23.10;99.90;;;;;;5031380;28;19988;-77
2021/08/04 11:22:20;;;;;;;;;;;22.80;99.90;;;;;;5031258;28;19949;-77
2021/08/04 11:24:56;;;;;;;;;;;22.60;99.90;;;;;;5031204;28;19917;-77
2021/08/04 11:27:23;;;;;;;;;;;22.10;99.90;;;;;;5034289;28;19913;-77
2021/08/04 11:29:48;;;;;;;;;;;21.90;99.90;;;;;;5035131;28;19917;-76
2021/08/04 11:32:24;;;;;;;;;;;21.70;99.90;;;;;;5035232;28;20321;-77
2021/08/04 11:34:50;;;;;;;;;;;21.50;99.90;;;;;;5035036;28;19936;-77
2021/08/04 11:37:16;;;;;;;;;;;21.40;99.90;;;;;;5034867;28;20361;-77
2021/08/04 11:40:11;;;;;;;;;;;21.10;99.90;;;;;;5035070;28;19909;-77
2021/08/04 11:42:36;;;;;;;;;;;21.00;99.90;;;;;;5020963;28;19916;-76
2021/08/04 11:45:06;;;;;;;;;;;20.90;99.90;;;;;;5035117;28;20544;-77
2021/08/04 11:47:32;;;;;;;;;;;20.80;99.90;;;;;;5034610;28;19909;-76
2021/08/04 11:50:03;;;;;;;;;;;20.90;99.90;;;;;;5033664;28;19956;-77
2021/08/04 11:52:29;;;;;;;;;;;20.90;99.90;;;;;;5034613;28;19913;-76
2021/08/04 11:55:05;;;;;;;;;;;21.00;99.90;;;;;;5016874;28;19917;-76
2021/08/04 11:57:34;;;;;;;;;;;21.10;99.90;;;;;;5016693;28;19952;-77
2021/08/04 12:00:03;;;;;;;;;;;21.10;99.90;;;;;;5034650;28;19916;-77
2021/08/04 12:02:33;;;;;;;;;;;21.10;99.90;;;;;;5034626;28;19913;-76
2021/08/04 12:04:59;;;;;;;;;;;21.20;99.90;;;;;;5034609;28;19963;-77
2021/08/04 12:07:26;;;;;;;;;;;21.20;99.90;;;;;;5034316;28;19916;-77
2021/08/04 12:09:52;;;;;;;;;;;21.30;99.90;;;;;;5034525;28;20373;-77
2021/08/04 12:12:19;;;;;;;;;;;21.30;99.90;;;;;;5034740;28;19909;-77
2021/08/04 12:14:45;;;;;;;;;;;21.40;99.90;;;;;;5034064;28;19920;-76
2021/08/04 12:17:19;;;;;;;;;;;21.40;99.90;;;;;;5029079;28;19920;-76
2021/08/04 12:19:45;;;;;;;;;;;21.40;99.90;;;;;;5034071;28;19931;-76
2021/08/04 12:22:17;;;;;;;;;;;21.50;99.90;;;;;;5033511;28;20390;-77
2021/08/04 12:24:45;;;;;;;;;;;21.40;99.90;;;;;;5033471;28;20009;-77
2021/08/04 12:27:10;;;;;;;;;;;21.30;99.90;;;;;;5033143;28;20016;-77
2021/08/04 12:29:36;;;;;;;;;;;21.20;99.90;;;;;;5033353;28;19944;-77
2021/08/04 12:32:08;;;;;;;;;;;21.00;99.90;;;;;;5033112;28;19928;-77
2021/08/04 12:34:50;;;;;;;;;;;21.10;99.90;;;;;;5032246;28;19956;-77
2021/08/04 12:37:16;;;;;;;;;;;21.20;99.90;;;;;;5031774;28;20434;-77
2021/08/04 12:39:42;;;;;;;;;;;21.20;99.90;;;;;;5033261;28;19910;-77
2021/08/04 12:42:07;;;;;;;;;;;21.10;99.90;;;;;;5033197;28;20389;-77
2021/08/04 12:44:33;;;;;;;;;;;21.20;99.90;;;;;;5033072;28;19983;-77
2021/08/04 12:47:06;;;;;;;;;;;21.30;99.90;;;;;;5033095;28;20342;-77
2021/08/04 12:49:32;;;;;;;;;;;21.40;99.90;;;;;;5033891;28;20009;-77
2021/08/04 12:51:58;;;;;;;;;;;21.40;99.90;;;;;;5033533;28;19996;-78
2021/08/04 12:54:30;;;;;;;;;;;21.60;99.90;;;;;;5033677;28;19940;-77
2021/08/04 12:56:56;;;;;;;;;;;21.80;99.90;;;;;;5033178;28;19956;-77
2021/08/04 12:59:23;;;;;;;;;;;21.70;99.90;;;;;;5033707;28;19944;-77
2021/08/04 13:01:50;;;;;;;;;;;21.80;99.90;;;;;;5033511;28;19916;-77
2021/08/04 13:04:19;;;;;;;;;;;21.90;99.90;;;;;;5033470;28;20267;-77
2021/08/04 13:06:48;;;;;;;;;;;22.00;99.90;;;;;;5033148;28;19955;-77
2021/08/04 13:09:14;;;;;;;;;;;21.90;99.90;;;;;;5033357;28;20354;-77
2021/08/04 13:11:39;;;;;;;;;;;21.90;99.90;;;;;;5033758;28;19916;-77
2021/08/04 13:14:09;;;;;;;;;;;22.00;99.90;;;;;;5033369;28;20374;-77
2021/08/04 13:16:36;;;;;;;;;;;21.80;99.90;;;;;;5032978;28;20391;-77
2021/08/04 13:19:02;;;;;;;;;;;21.80;99.90;;;;;;5033280;28;19996;-78
2021/08/04 13:21:28;;;;;;;;;;;21.90;99.90;;;;;;5015045;28;19928;-77
2021/08/04 13:23:54;;;;;;;;;;;21.70;99.90;;;;;;5014935;28;19944;-78
2021/08/04 13:26:21;;;;;;;;;;;21.70;99.90;;;;;;5032724;28;20500;-78
2021/08/04 13:28:48;;;;;;;;;;;21.80;99.90;;;;;;5033091;28;20000;-77
2021/08/04 13:31:22;;;;;;;;;;;21.70;99.90;;;;;;5032859;28;19917;-78
2021/08/04 13:33:48;;;;;;;;;;;21.60;99.90;;;;;;5013244;28;20017;-78
2021/08/04 13:36:13;;;;;;;;;;;21.50;99.90;;;;;;5012784;28;20000;-78
2021/08/04 13:38:39;;;;;;;;;;;21.40;99.90;;;;;;5013008;28;19913;-78
2021/08/04 13:41:05;;;;;;;;;;;21.30;99.90;;;;;;5013102;28;19961;-78
2021/08/04 13:43:31;;;;;;;;;;;21.20;99.90;;;;;;5012970;28;19917;-78
2021/08/04 13:45:57;;;;;;;;;;;21.20;99.90;;;;;;5012756;28;19917;-78
2021/08/04 13:48:22;;;;;;;;;;;21.10;99.90;;;;;;5012146;28;19910;-78
2021/08/04 13:50:51;;;;;;;;;;;21.00;99.90;;;;;;5017873;28;20329;-78
2021/08/04 13:53:18;;;;;;;;;;;20.90;99.90;;;;;;5032180;28;20397;-78
2021/08/04 13:55:44;;;;;;;;;;;20.70;99.90;;;;;;5032627;28;20320;-77
2021/08/04 13:58:09;;;;;;;;;;;20.70;99.90;;;;;;5032206;28;19909;-78
2021/08/04 14:00:36;;;;;;;;;;;20.60;99.90;;;;;;5032658;28;19916;-78
2021/08/04 14:03:06;;;;;;;;;;;20.50;99.90;;;;;;5032456;28;19913;-78
2021/08/04 14:05:36;;;;;;;;;;;20.30;99.90;;;;;;5032262;28;20370;-78
2021/08/04 14:08:02;;;;;;;;;;;20.20;99.90;;;;;;5014681;28;20288;-78
2021/08/04 14:10:28;;;;;;;;;;;20.10;99.90;;;;;;5032170;28;19909;-78
2021/08/04 14:12:53;;;;;;;;;;;20.10;99.90;;;;;;5014548;28;19917;-78
2021/08/04 14:15:20;;;;;;;;;;;20.00;99.90;;;;;;5032242;28;19932;-78